Radiance Of The Seas — C6SE7 — position and weather

sailwx.info

Track history (hours):
 
Tides and Currents Weather Stations Pressure Air Temp Water Temp Dewpoint Dewpoint Depression Visibility Wind Speed Wind Dir Waves Ship Positions

Radiance Of The Seas

Operator: Royal Caribbean Cruises Ltd

Last reported at 2017-Jul-17 13:00 UTC. Time now 2017-Jul-21 02:30 UTC.
Position N 57°24' W 134°42'.

Type: Passenger vessel. MMSI: 311319000.

Wind from 260 at 8 knots

Barometer 1024.0 mb
Air temperature 11.0 ° C
Water temperature 11.0 ° C

Date/timePositionNaut miles runAvg speedWind from/ knotsBaromVisibWave heightAir tempDewpointWater temp
2017-Jul-17 13:00N 57°24' W 134°42'311 8.6 260 / 81024.0 11.0 11.0
2017-Jul-16 01:00N 52°48' W 130°30'1414.0 300 / 121017.0 13.0 14.0
2017-Jul-16 00:00N 52°36' W 130°18'5313.6 340 / 51017.0 13.0 14.0
2017-Jul-15 20:06N 51°56' W 129°21'114.0
2017-Jul-15 20:00N 51°55' W 129°20'713.8
2017-Jul-15 19:30N 51°49' W 129°13'713.3
2017-Jul-15 19:01N 51°44' W 129°06'713.8
2017-Jul-15 18:30N 51°39' W 128°60'713.8
2017-Jul-15 18:00N 51°33' W 128°52'714.5
2017-Jul-15 17:30N 51°28' W 128°45'714.1
2017-Jul-15 17:00N 51°22' W 128°38'713.7
2017-Jul-15 16:30N 51°17' W 128°31'713.5
2017-Jul-15 16:01N 51°13' W 128°22'3160.7
2017-Jul-15 16:00N 51°12' W 128°18'4 8.9 130 / 151018.0 14.0 13.0
2017-Jul-15 15:30N 51°09' W 128°13'713.6
2017-Jul-15 15:00N 51°05' W 128°04'1413.6
2017-Jul-15 14:00N 50°58' W 127°46'612.9
2017-Jul-15 13:30N 50°54' W 127°38'713.3
2017-Jul-15 13:00N 50°50' W 127°29'713.0
2017-Jul-15 12:30N 50°48' W 127°19'613.0
2017-Jul-15 12:00N 50°45' W 127°10'713.4
2017-Jul-15 11:30N 50°43' W 126°60'6412.7
2017-Jul-15 06:28N 50°20' W 125°26'713.6
2017-Jul-15 05:58N 50°14' W 125°23'613.9
2017-Jul-15 05:30N 50°08' W 125°21'713.7
2017-Jul-15 05:00N 50°02' W 125°14'815.3
2017-Jul-15 04:30N 49°56' W 125°07'918.3
2017-Jul-15 04:00N 49°50' W 124°57'918.8
2017-Jul-15 03:30N 49°43' W 124°47'1121.8
2017-Jul-15 03:00N 49°36' W 124°35'1223.8
2017-Jul-15 02:30N 49°27' W 124°21'1423.4
2017-Jul-15 01:54N 49°22' W 124°02'923.8
2017-Jul-15 01:30N 49°20' W 123°47'1223.2
2017-Jul-15 01:01N 49°19' W 123°30'1020.9
2017-Jul-15 00:31N 49°19' W 123°13'510.2
2017-Jul-15 00:00N 49°17' W 123°06'0 0.6
2017-Jul-14 23:29N 49°17' W 123°07'0 0.0
2017-Jul-14 22:59N 49°17' W 123°07'0 0.0
2017-Jul-14 22:29N 49°17' W 123°07'0 0.0
2017-Jul-14 21:59N 49°17' W 123°07'0 0.0
2017-Jul-14 21:29N 49°17' W 123°07'0 0.0
2017-Jul-14 20:59N 49°17' W 123°07'0 0.0
2017-Jul-14 20:29N 49°17' W 123°07'0 0.0
2017-Jul-14 19:59N 49°17' W 123°07'0 0.0
2017-Jul-14 19:29N 49°17' W 123°07'0 0.0
2017-Jul-14 18:59N 49°17' W 123°07'0 0.0
2017-Jul-14 18:29N 49°17' W 123°07'0 0.0
2017-Jul-14 17:59N 49°17' W 123°07'0 0.0
2017-Jul-14 17:29N 49°17' W 123°07'0 0.0
2017-Jul-14 16:59N 49°17' W 123°07'0 0.0
2017-Jul-14 16:29N 49°17' W 123°07'0 0.0
2017-Jul-14 15:59N 49°17' W 123°07'0 0.0
2017-Jul-14 15:29N 49°17' W 123°07'0 0.0
2017-Jul-14 14:59N 49°17' W 123°07'0 0.0
2017-Jul-14 14:29N 49°17' W 123°07'0 0.1
2017-Jul-14 14:00N 49°17' W 123°07'2 3.8
2017-Jul-14 13:30N 49°19' W 123°08'612.3
2017-Jul-14 13:00N 49°18' W 123°18'611.6
2017-Jul-14 12:30N 49°19' W 123°27'611.8
2017-Jul-14 12:00N 49°19' W 123°36'611.8
2017-Jul-14 11:30N 49°19' W 123°45'2711.3
2017-Jul-14 09:06N 49°27' W 124°24'511.8
2017-Jul-14 08:42N 49°30' W 124°30'311.6
2017-Jul-14 08:28N 49°32' W 124°33'511.2
2017-Jul-14 08:00N 49°36' W 124°38'511.0
2017-Jul-14 07:30N 49°41' W 124°43'611.3
2017-Jul-14 07:00N 49°45' W 124°49'611.3
2017-Jul-14 06:31N 49°49' W 124°55'611.1
2017-Jul-14 06:00N 49°53' W 125°01'611.3
2017-Jul-14 05:30N 49°57' W 125°08'611.8
2017-Jul-14 05:00N 50°01' W 125°13'713.8
2017-Jul-14 04:30N 50°07' W 125°19'713.6
2017-Jul-14 04:00N 50°14' W 125°23'7215.5
2017-Jul-13 23:23N 50°37' W 127°09'616.7
2017-Jul-13 23:00N 50°42' W 127°16'917.7
2017-Jul-13 22:30N 50°48' W 127°25'917.7
2017-Jul-13 22:00N 50°53' W 127°36'816.3
2017-Jul-13 21:30N 50°58' W 127°47'612.5
2017-Jul-13 21:00N 51°01' W 127°55'815.2
2017-Jul-13 20:30N 51°06' W 128°05'12015.9
2017-Jul-13 13:00N 52°36' W 130°12'5117.0 160 / 171015.0 13.0 14.0
2017-Jul-13 10:00N 53°18' W 131°00'130 6.8 160 / 171014.010.8 12.0 14.0
2017-Jul-12 15:00N 55°24' W 131°54'3618.1 040 / 111012.0 12.0 13.0
2017-Jul-12 13:00N 55°54' W 132°30'   170 / 101012.0 10.0 12.0
2017-Jul-09 14:00N 58°24' W 134°54'1212.0 200 / 141010.0 11.0 12.0
2017-Jul-09 13:00N 58°12' W 134°54'26012.4 280 / 151010.0 10.0 11.0
2017-Jul-08 16:00N 59°30' W 142°54'   270 / 81020.0 10.0 14.0
Track history (hours):
 
Tides and Currents Weather Stations Pressure Air Temp Water Temp Dewpoint Dewpoint Depression Visibility Wind Speed Wind Dir Waves Ship Positions

Radiance Of The Seas

Operator: Royal Caribbean Cruises Ltd

Last reported at 2017-Jul-17 13:00 UTC. Time now 2017-Jul-21 02:30 UTC.
Position N 57°24' W 134°42'.

Type: Passenger vessel. MMSI: 311319000.

Wind from 260 at 8 knots

Barometer 1024.0 mb
Air temperature 11.0 ° C
Water temperature 11.0 ° C

Date/timePositionNaut miles runAvg speedWind from/ knotsBaromVisibWave heightAir tempDewpointWater temp
2017-Jul-17 13:00N 57°24' W 134°42'311 8.6 260 / 81024.0 11.0 11.0
2017-Jul-16 01:00N 52°48' W 130°30'1414.0 300 / 121017.0 13.0 14.0
2017-Jul-16 00:00N 52°36' W 130°18'5313.6 340 / 51017.0 13.0 14.0
2017-Jul-15 20:06N 51°56' W 129°21'114.0
2017-Jul-15 20:00N 51°55' W 129°20'713.8
2017-Jul-15 19:30N 51°49' W 129°13'713.3
2017-Jul-15 19:01N 51°44' W 129°06'713.8
2017-Jul-15 18:30N 51°39' W 128°60'713.8
2017-Jul-15 18:00N 51°33' W 128°52'714.5
2017-Jul-15 17:30N 51°28' W 128°45'714.1
2017-Jul-15 17:00N 51°22' W 128°38'713.7
2017-Jul-15 16:30N 51°17' W 128°31'713.5
2017-Jul-15 16:01N 51°13' W 128°22'3160.7
2017-Jul-15 16:00N 51°12' W 128°18'4 8.9 130 / 151018.0 14.0 13.0
2017-Jul-15 15:30N 51°09' W 128°13'713.6
2017-Jul-15 15:00N 51°05' W 128°04'1413.6
2017-Jul-15 14:00N 50°58' W 127°46'612.9
2017-Jul-15 13:30N 50°54' W 127°38'713.3
2017-Jul-15 13:00N 50°50' W 127°29'713.0
2017-Jul-15 12:30N 50°48' W 127°19'613.0
2017-Jul-15 12:00N 50°45' W 127°10'713.4
2017-Jul-15 11:30N 50°43' W 126°60'6412.7
2017-Jul-15 06:28N 50°20' W 125°26'713.6
2017-Jul-15 05:58N 50°14' W 125°23'613.9
2017-Jul-15 05:30N 50°08' W 125°21'713.7
2017-Jul-15 05:00N 50°02' W 125°14'815.3
2017-Jul-15 04:30N 49°56' W 125°07'918.3
2017-Jul-15 04:00N 49°50' W 124°57'918.8
2017-Jul-15 03:30N 49°43' W 124°47'1121.8
2017-Jul-15 03:00N 49°36' W 124°35'1223.8
2017-Jul-15 02:30N 49°27' W 124°21'1423.4
2017-Jul-15 01:54N 49°22' W 124°02'923.8
2017-Jul-15 01:30N 49°20' W 123°47'1223.2
2017-Jul-15 01:01N 49°19' W 123°30'1020.9
2017-Jul-15 00:31N 49°19' W 123°13'510.2
2017-Jul-15 00:00N 49°17' W 123°06'0 0.6
2017-Jul-14 23:29N 49°17' W 123°07'0 0.0
2017-Jul-14 22:59N 49°17' W 123°07'0 0.0
2017-Jul-14 22:29N 49°17' W 123°07'0 0.0
2017-Jul-14 21:59N 49°17' W 123°07'0 0.0
2017-Jul-14 21:29N 49°17' W 123°07'0 0.0
2017-Jul-14 20:59N 49°17' W 123°07'0 0.0
2017-Jul-14 20:29N 49°17' W 123°07'0 0.0
2017-Jul-14 19:59N 49°17' W 123°07'0 0.0
2017-Jul-14 19:29N 49°17' W 123°07'0 0.0
2017-Jul-14 18:59N 49°17' W 123°07'0 0.0
2017-Jul-14 18:29N 49°17' W 123°07'0 0.0
2017-Jul-14 17:59N 49°17' W 123°07'0 0.0
2017-Jul-14 17:29N 49°17' W 123°07'0 0.0
2017-Jul-14 16:59N 49°17' W 123°07'0 0.0
2017-Jul-14 16:29N 49°17' W 123°07'0 0.0
2017-Jul-14 15:59N 49°17' W 123°07'0 0.0
2017-Jul-14 15:29N 49°17' W 123°07'0 0.0
2017-Jul-14 14:59N 49°17' W 123°07'0 0.0
2017-Jul-14 14:29N 49°17' W 123°07'0 0.1
2017-Jul-14 14:00N 49°17' W 123°07'2 3.8
2017-Jul-14 13:30N 49°19' W 123°08'612.3
2017-Jul-14 13:00N 49°18' W 123°18'611.6
2017-Jul-14 12:30N 49°19' W 123°27'611.8
2017-Jul-14 12:00N 49°19' W 123°36'611.8
2017-Jul-14 11:30N 49°19' W 123°45'2711.3
2017-Jul-14 09:06N 49°27' W 124°24'511.8
2017-Jul-14 08:42N 49°30' W 124°30'311.6
2017-Jul-14 08:28N 49°32' W 124°33'511.2
2017-Jul-14 08:00N 49°36' W 124°38'511.0
2017-Jul-14 07:30N 49°41' W 124°43'611.3
2017-Jul-14 07:00N 49°45' W 124°49'611.3
2017-Jul-14 06:31N 49°49' W 124°55'611.1
2017-Jul-14 06:00N 49°53' W 125°01'611.3
2017-Jul-14 05:30N 49°57' W 125°08'611.8
2017-Jul-14 05:00N 50°01' W 125°13'713.8
2017-Jul-14 04:30N 50°07' W 125°19'713.6
2017-Jul-14 04:00N 50°14' W 125°23'7215.5
2017-Jul-13 23:23N 50°37' W 127°09'616.7
2017-Jul-13 23:00N 50°42' W 127°16'917.7
2017-Jul-13 22:30N 50°48' W 127°25'917.7
2017-Jul-13 22:00N 50°53' W 127°36'816.3
2017-Jul-13 21:30N 50°58' W 127°47'612.5
2017-Jul-13 21:00N 51°01' W 127°55'815.2
2017-Jul-13 20:30N 51°06' W 128°05'12015.9
2017-Jul-13 13:00N 52°36' W 130°12'5117.0 160 / 171015.0 13.0 14.0
2017-Jul-13 10:00N 53°18' W 131°00'130 6.8 160 / 171014.010.8 12.0 14.0
2017-Jul-12 15:00N 55°24' W 131°54'3618.1 040 / 111012.0 12.0 13.0
2017-Jul-12 13:00N 55°54' W 132°30'   170 / 101012.0 10.0 12.0
2017-Jul-09 14:00N 58°24' W 134°54'1212.0 200 / 141010.0 11.0 12.0
2017-Jul-09 13:00N 58°12' W 134°54'26012.4 280 / 151010.0 10.0 11.0
2017-Jul-08 16:00N 59°30' W 142°54'   270 / 81020.0 10.0 14.0

Dump ship's entire track history